Time;durP1;ratioP1;P1;durP2;ratioP2;P2;SDS_P1;SDS_P2;PMS_P1;PMS_P2;Temp;Humidity;BMP_temperature;BMP_pressure;BME280_temperature;BME280_humidity;BME280_pressure;Samples;Min_cycle;Max_cycle;Signal;HPM_P1;HPM_P2
2023/12/14 00:00:07;;;;;;;6.68;3.58;;;4.70;99.90;;;;;;4087325;29;20048;-81
2023/12/14 00:02:08;;;;;;;8.73;3.28;;;4.70;99.90;;;;;;4090773;29;20110;-81
2023/12/14 00:04:11;;;;;;;9.05;3.20;;;4.70;99.90;;;;;;4089395;29;20118;-81
2023/12/14 00:06:12;;;;;;;6.45;3.00;;;4.60;99.90;;;;;;4088809;29;20507;-81
2023/12/14 00:08:13;;;;;;;7.30;3.10;;;4.60;99.90;;;;;;4088843;29;20079;-81
2023/12/14 00:10:14;;;;;;;8.15;2.72;;;4.70;99.90;;;;;;4089038;29;20480;-81
2023/12/14 00:12:15;;;;;;;8.07;3.55;;;4.60;99.90;;;;;;4099854;29;20048;-81
2023/12/14 00:14:15;;;;;;;5.18;2.80;;;4.60;99.90;;;;;;4112575;28;20094;-80
2023/12/14 00:16:16;;;;;;;7.70;3.45;;;4.70;99.90;;;;;;4134035;28;20046;-80
2023/12/14 00:18:18;;;;;;;8.20;3.22;;;4.60;99.90;;;;;;4133425;28;20043;-80
2023/12/14 00:20:18;;;;;;;6.47;3.15;;;4.60;99.90;;;;;;4128421;28;20507;-80
2023/12/14 00:22:19;;;;;;;7.10;3.53;;;4.60;99.90;;;;;;4122083;28;20062;-80
2023/12/14 00:24:21;;;;;;;6.45;3.42;;;4.60;99.90;;;;;;4120241;28;20050;-80
2023/12/14 00:26:21;;;;;;;4.90;2.78;;;4.60;99.90;;;;;;4119914;28;20050;-80
2023/12/14 00:28:23;;;;;;;9.02;3.50;;;4.60;99.90;;;;;;4118139;28;20051;-80
2023/12/14 00:30:24;;;;;;;8.52;3.53;;;4.60;99.90;;;;;;4119464;28;20051;-80
2023/12/14 00:32:25;;;;;;;10.30;3.55;;;4.60;99.90;;;;;;4119625;28;20086;-80
2023/12/14 00:34:26;;;;;;;7.15;3.03;;;4.60;99.90;;;;;;4119771;28;20062;-81
2023/12/14 00:36:27;;;;;;;7.70;2.95;;;4.60;99.90;;;;;;4119297;28;20039;-80
2023/12/14 00:38:28;;;;;;;10.68;2.92;;;4.60;99.90;;;;;;4119758;28;20106;-80
2023/12/14 00:40:29;;;;;;;8.15;2.58;;;4.60;99.90;;;;;;4119621;28;20070;-80
2023/12/14 00:42:30;;;;;;;6.35;2.88;;;4.60;99.90;;;;;;4119630;28;20047;-80
2023/12/14 00:44:31;;;;;;;6.97;3.88;;;4.80;99.90;;;;;;4119617;28;20082;-80
2023/12/14 00:46:32;;;;;;;6.78;3.92;;;5.20;99.90;;;;;;4120088;28;20044;-80
2023/12/14 00:48:33;;;;;;;9.13;4.78;;;4.60;99.90;;;;;;4117931;28;20631;-80
2023/12/14 00:50:33;;;;;;;12.15;3.53;;;4.60;99.90;;;;;;4119581;28;20042;-80
2023/12/14 00:52:34;;;;;;;8.15;3.63;;;4.60;99.90;;;;;;4119440;28;20104;-80
2023/12/14 00:54:35;;;;;;;8.65;3.78;;;5.10;99.90;;;;;;4111726;28;20043;-80
2023/12/14 00:56:35;;;;;;;7.22;3.55;;;5.10;99.90;;;;;;4102894;28;20187;-80
2023/12/14 00:58:36;;;;;;;11.13;4.10;;;4.60;99.90;;;;;;4103057;28;20531;-80
2023/12/14 01:00:38;;;;;;;8.85;3.38;;;4.60;99.90;;;;;;4103051;28;20126;-80
2023/12/14 01:02:39;;;;;;;10.07;3.88;;;4.60;99.90;;;;;;4102917;28;20130;-80
2023/12/14 01:04:39;;;;;;;9.23;4.13;;;4.60;99.90;;;;;;4102424;28;20047;-80
2023/12/14 01:06:40;;;;;;;9.63;3.60;;;4.60;99.90;;;;;;4105402;28;20051;-80
2023/12/14 01:08:40;;;;;;;10.48;3.85;;;4.60;99.90;;;;;;4102763;28;20051;-80
2023/12/14 01:10:41;;;;;;;12.60;5.00;;;4.60;99.90;;;;;;4102501;28;20050;-80
2023/12/14 01:12:42;;;;;;;11.25;4.63;;;4.60;99.90;;;;;;4103466;28;20098;-80
2023/12/14 01:14:43;;;;;;;14.68;4.57;;;5.30;99.90;;;;;;4102617;28;20047;-80
2023/12/14 01:16:43;;;;;;;10.35;4.50;;;4.60;99.90;;;;;;4103802;28;20103;-80
2023/12/14 01:18:45;;;;;;;15.27;4.47;;;4.60;99.90;;;;;;4105521;28;20043;-80
2023/12/14 01:20:46;;;;;;;9.00;4.25;;;4.60;99.90;;;;;;4105331;28;20051;-80
2023/12/14 01:22:47;;;;;;;15.18;4.00;;;4.60;99.90;;;;;;4105021;28;20091;-80
2023/12/14 01:24:49;;;;;;;9.05;4.00;;;4.60;99.90;;;;;;4105594;28;20048;-80
2023/12/14 01:26:50;;;;;;;10.43;4.15;;;4.80;99.90;;;;;;4105261;28;20396;-80
2023/12/14 01:28:51;;;;;;;10.93;3.97;;;4.60;99.90;;;;;;4118984;28;20554;-80
2023/12/14 01:30:53;;;;;;;11.23;4.15;;;4.60;99.90;;;;;;4121368;28;20058;-80
2023/12/14 01:32:53;;;;;;;11.85;4.25;;;4.70;99.90;;;;;;4121478;28;20050;-80
2023/12/14 01:34:54;;;;;;;11.57;4.65;;;4.60;99.90;;;;;;4120352;28;20042;-80
2023/12/14 01:36:55;;;;;;;8.50;4.05;;;4.60;99.90;;;;;;4120878;28;20427;-80
2023/12/14 01:38:56;;;;;;;9.48;4.22;;;4.60;99.90;;;;;;4120708;28;20045;-80
2023/12/14 01:40:59;;;;;;;12.95;4.93;;;4.60;99.90;;;;;;4120620;28;20051;-80
2023/12/14 01:43:08;;;;;;;11.63;5.38;;;4.60;99.90;;;;;;4121500;28;20042;-80
2023/12/14 01:45:09;;;;;;;;;;;4.80;99.90;;;;;;4133397;28;20062;-80
2023/12/14 01:47:09;;;;;;;12.15;4.68;;;4.60;99.90;;;;;;4129050;28;19922;-80
2023/12/14 01:49:15;;;;;;;12.63;4.57;;;4.60;99.90;;;;;;4128675;28;20484;-80
2023/12/14 01:51:15;;;;;;;10.55;3.78;;;4.70;99.90;;;;;;4128752;28;20074;-80
2023/12/14 01:53:17;;;;;;;8.35;4.15;;;5.10;99.90;;;;;;4128622;28;20078;-80
2023/12/14 01:55:20;;;;;;;13.50;5.10;;;5.00;99.90;;;;;;4127693;28;20080;-80
2023/12/14 01:57:24;;;;;;;9.13;3.67;;;4.60;99.90;;;;;;4128476;28;20042;-80
2023/12/14 01:59:24;;;;;;;11.48;4.00;;;5.00;99.90;;;;;;4123885;28;20127;-80
2023/12/14 02:01:41;;;;;;;10.45;3.85;;;4.50;99.90;;;;;;4121196;28;20054;-80
2023/12/14 02:03:50;;;;;;;10.93;4.13;;;4.60;99.90;;;;;;4121204;28;20042;-80
2023/12/14 02:05:51;;;;;;;13.43;4.40;;;4.60;99.90;;;;;;4120907;28;20082;-80
2023/12/14 02:07:52;;;;;;;10.48;4.15;;;4.60;99.90;;;;;;4121002;28;20038;-80
2023/12/14 02:09:53;;;;;;;10.35;4.38;;;4.60;99.90;;;;;;4121076;28;20108;-80
2023/12/14 02:11:54;;;;;;;10.95;4.03;;;4.60;99.90;;;;;;4121023;28;20514;-80
2023/12/14 02:13:55;;;;;;;9.43;3.92;;;4.60;99.90;;;;;;4121014;28;20555;-80
2023/12/14 02:15:55;;;;;;;14.55;4.82;;;5.20;99.90;;;;;;4120950;28;20046;-80
2023/12/14 02:17:56;;;;;;;8.73;3.80;;;4.60;99.90;;;;;;4120474;28;20078;-80
2023/12/14 02:20:00;;;;;;;9.52;4.00;;;4.60;99.90;;;;;;4120764;28;20042;-80
2023/12/14 02:22:00;;;;;;;9.95;4.13;;;4.60;99.90;;;;;;4120829;28;20053;-80
2023/12/14 02:24:01;;;;;;;8.55;4.03;;;4.60;99.90;;;;;;4119495;28;20063;-80
2023/12/14 02:26:02;;;;;;;10.48;4.10;;;4.60;99.90;;;;;;4120747;28;20118;-80
2023/12/14 02:28:03;;;;;;;9.73;4.20;;;4.60;99.90;;;;;;4119172;28;20057;-80
2023/12/14 02:30:06;;;;;;;13.00;4.32;;;4.60;99.90;;;;;;4120428;28;20051;-80
2023/12/14 02:32:07;;;;;;;11.57;3.50;;;4.60;99.90;;;;;;4120697;28;20043;-81
2023/12/14 02:34:07;;;;;;;10.45;3.78;;;4.60;99.90;;;;;;4120665;28;20496;-81
2023/12/14 02:36:08;;;;;;;10.15;4.25;;;4.60;99.90;;;;;;4121026;28;20515;-80
2023/12/14 02:38:09;;;;;;;14.30;3.90;;;4.60;99.90;;;;;;4120628;28;20074;-80
2023/12/14 02:40:11;;;;;;;10.95;4.13;;;4.60;99.90;;;;;;4120564;28;20047;-81
2023/12/14 02:42:13;;;;;;;8.65;4.32;;;4.60;99.90;;;;;;4120192;28;20125;-81
2023/12/14 02:44:14;;;;;;;10.38;4.22;;;4.60;99.90;;;;;;4119704;28;20082;-81
2023/12/14 02:46:16;;;;;;;7.22;3.17;;;4.60;99.90;;;;;;4119998;28;20511;-81
2023/12/14 02:48:16;;;;;;;9.38;3.92;;;4.60;99.90;;;;;;4119696;28;20047;-81
2023/12/14 02:50:18;;;;;;;10.50;4.43;;;4.60;99.90;;;;;;4120452;28;20503;-81
2023/12/14 02:52:19;;;;;;;6.75;3.20;;;4.60;99.90;;;;;;4119765;28;20082;-81
2023/12/14 02:54:19;;;;;;;11.40;3.72;;;4.60;99.90;;;;;;4119929;28;20452;-80
2023/12/14 02:56:20;;;;;;;10.45;3.42;;;4.80;99.90;;;;;;4119177;28;20031;-80
2023/12/14 02:58:23;;;;;;;10.00;3.65;;;5.30;99.90;;;;;;4119483;28;20081;-81
2023/12/14 03:00:24;;;;;;;11.18;4.80;;;4.60;99.90;;;;;;4119862;28;20046;-81
2023/12/14 03:02:25;;;;;;;8.15;3.80;;;5.50;99.90;;;;;;4119330;28;20047;-80
2023/12/14 03:04:26;;;;;;;9.70;3.60;;;5.10;99.90;;;;;;4119309;28;20466;-80
2023/12/14 03:06:27;;;;;;;10.68;3.47;;;4.60;99.90;;;;;;4119630;28;20116;-80
2023/12/14 03:08:29;;;;;;;13.55;3.92;;;4.60;99.90;;;;;;4119590;28;20180;-80
2023/12/14 03:10:30;;;;;;;15.70;3.67;;;4.60;99.90;;;;;;4119189;28;20468;-80
2023/12/14 03:12:31;;;;;;;10.75;3.78;;;4.70;99.90;;;;;;4119527;28;20054;-80
2023/12/14 03:14:33;;;;;;;9.43;4.47;;;4.80;99.90;;;;;;4119095;28;20130;-80
2023/12/14 03:16:35;;;;;;;13.90;4.38;;;4.70;99.90;;;;;;4118830;28;20077;-80
2023/12/14 03:18:36;;;;;;;10.02;3.72;;;4.70;99.90;;;;;;4119763;28;20069;-80
2023/12/14 03:20:36;;;;;;;8.15;3.88;;;4.70;99.90;;;;;;4118968;28;20043;-80
2023/12/14 03:22:38;;;;;;;10.32;3.70;;;4.70;99.90;;;;;;4119140;28;20126;-80
2023/12/14 03:24:38;;;;;;;14.38;4.82;;;5.70;99.90;;;;;;4119323;28;20054;-80
2023/12/14 03:26:39;;;;;;;10.60;4.32;;;5.10;99.90;;;;;;4118352;28;20528;-80
2023/12/14 03:28:41;;;;;;;9.35;4.25;;;4.70;99.90;;;;;;4118998;28;20061;-80
2023/12/14 03:30:42;;;;;;;15.32;4.95;;;5.60;99.90;;;;;;4118913;28;20130;-80
2023/12/14 03:32:42;;;;;;;13.13;4.32;;;4.70;99.90;;;;;;4118092;28;20055;-80
2023/12/14 03:34:44;;;;;;;13.13;4.68;;;4.70;99.90;;;;;;4119381;28;20484;-80
2023/12/14 03:36:45;;;;;;;10.13;4.45;;;4.70;99.90;;;;;;4118352;28;20046;-80
2023/12/14 03:38:45;;;;;;;13.65;4.88;;;5.00;99.90;;;;;;4119613;28;20049;-80
2023/12/14 03:40:46;;;;;;;12.90;4.43;;;4.70;99.90;;;;;;4118513;28;20047;-80
2023/12/14 03:42:47;;;;;;;16.35;4.53;;;5.70;99.90;;;;;;4119147;28;20097;-80
2023/12/14 03:44:48;;;;;;;16.38;5.50;;;4.70;99.90;;;;;;4118482;28;20058;-80
2023/12/14 03:46:49;;;;;;;14.48;5.10;;;4.70;99.90;;;;;;4118942;28;20538;-80
2023/12/14 03:48:49;;;;;;;12.55;4.72;;;4.70;99.90;;;;;;4117404;28;20126;-80
2023/12/14 03:50:50;;;;;;;11.60;4.95;;;4.60;99.90;;;;;;4118100;28;20552;-80
2023/12/14 03:52:51;;;;;;;10.63;5.25;;;4.60;99.90;;;;;;4118100;28;20050;-80
2023/12/14 03:54:52;;;;;;;11.48;5.20;;;4.60;99.90;;;;;;4118687;28;20050;-80
2023/12/14 03:56:53;;;;;;;9.30;4.40;;;4.60;99.90;;;;;;4118007;28;20042;-80
2023/12/14 03:58:53;;;;;;;9.60;4.20;;;4.70;99.90;;;;;;4118084;28;20078;-80
2023/12/14 04:00:54;;;;;;;11.57;4.60;;;4.70;99.90;;;;;;4117823;28;20125;-80
2023/12/14 04:02:56;;;;;;;12.48;4.90;;;4.60;99.90;;;;;;4117619;28;20038;-80
2023/12/14 04:04:56;;;;;;;9.55;4.45;;;4.70;99.90;;;;;;4116337;28;20054;-80
2023/12/14 04:06:57;;;;;;;11.73;4.90;;;4.60;99.90;;;;;;4118012;28;20093;-80
2023/12/14 04:08:58;;;;;;;14.88;5.40;;;4.60;99.90;;;;;;4117452;28;20059;-80
2023/12/14 04:10:58;;;;;;;12.95;5.07;;;4.60;99.90;;;;;;4117443;28;20078;-79
2023/12/14 04:12:59;;;;;;;14.85;5.43;;;4.80;99.90;;;;;;4117293;28;20047;-79
2023/12/14 04:15:07;;;;;;;15.32;5.20;;;4.60;99.90;;;;;;4130826;28;20038;-79
2023/12/14 04:17:08;;;;;;;14.87;5.20;;;4.60;99.90;;;;;;4128271;28;20057;-80
2023/12/14 04:19:10;;;;;;;12.23;4.85;;;4.60;99.90;;;;;;4120862;28;20126;-80
2023/12/14 04:21:11;;;;;;;16.35;5.25;;;4.60;99.90;;;;;;4121527;28;20047;-80
2023/12/14 04:23:13;;;;;;;13.38;5.40;;;4.60;99.90;;;;;;4120823;28;20043;-80
2023/12/14 04:25:14;;;;;;;13.45;4.43;;;4.60;99.90;;;;;;4122146;28;20070;-80
2023/12/14 04:27:15;;;;;;;14.68;5.38;;;4.90;99.90;;;;;;4122372;28;20046;-81
2023/12/14 04:29:18;;;;;;;10.63;4.50;;;5.30;99.90;;;;;;4125862;28;20042;-81
2023/12/14 04:31:18;;;;;;;9.68;4.68;;;4.60;99.90;;;;;;4121755;28;20487;-81
2023/12/14 04:33:20;;;;;;;12.10;5.28;;;4.60;99.90;;;;;;4117657;28;20073;-81
2023/12/14 04:35:22;;;;;;;13.68;4.20;;;5.20;99.90;;;;;;4116944;28;20047;-80
2023/12/14 04:37:23;;;;;;;16.23;5.43;;;4.60;99.90;;;;;;4117616;28;20515;-81
2023/12/14 04:39:26;;;;;;;12.98;4.82;;;4.80;99.90;;;;;;4118249;28;20046;-81
2023/12/14 04:41:27;;;;;;;14.45;4.82;;;4.60;99.90;;;;;;4118396;28;20423;-81
2023/12/14 04:43:30;;;;;;;11.93;5.18;;;5.40;99.90;;;;;;4116650;28;20484;-81
2023/12/14 04:45:30;;;;;;;12.38;4.88;;;4.60;99.90;;;;;;4117828;28;20051;-81
2023/12/14 04:47:31;;;;;;;11.75;4.68;;;4.70;99.90;;;;;;4117694;28;20088;-81
2023/12/14 04:49:33;;;;;;;11.40;4.65;;;4.60;99.90;;;;;;4116806;28;20043;-79
2023/12/14 04:51:34;;;;;;;12.30;5.22;;;4.60;99.90;;;;;;4118079;28;20506;-79
2023/12/14 04:53:35;;;;;;;14.93;5.50;;;5.10;99.90;;;;;;4120025;28;20129;-80
2023/12/14 04:55:36;;;;;;;10.85;5.00;;;4.60;99.90;;;;;;4120403;28;20407;-80
2023/12/14 04:57:37;;;;;;;13.13;4.88;;;4.60;99.90;;;;;;4120965;28;20035;-79
2023/12/14 04:59:42;;;;;;;13.95;4.88;;;4.60;99.90;;;;;;4138649;28;20062;-79
2023/12/14 05:01:42;;;;;;;14.32;5.15;;;4.70;99.90;;;;;;4124555;28;20055;-79
2023/12/14 05:03:44;;;;;;;11.55;5.00;;;4.60;99.90;;;;;;4125498;28;20055;-79
2023/12/14 05:05:45;;;;;;;13.15;4.63;;;4.60;99.90;;;;;;4121897;28;20396;-80
2023/12/14 05:07:47;;;;;;;13.15;4.60;;;4.60;99.90;;;;;;4124307;28;20046;-80
2023/12/14 05:09:48;;;;;;;13.25;5.22;;;4.60;99.90;;;;;;4123640;28;20101;-80
2023/12/14 05:11:49;;;;;;;13.73;5.68;;;4.60;99.90;;;;;;4124165;28;20043;-80
2023/12/14 05:13:50;;;;;;;14.90;5.50;;;4.60;99.90;;;;;;4127367;28;20514;-80
2023/12/14 05:15:52;;;;;;;16.15;5.90;;;4.60;99.90;;;;;;4126543;28;20051;-80
2023/12/14 05:17:52;;;;;;;22.40;5.13;;;4.60;99.90;;;;;;4126019;28;20035;-80
2023/12/14 05:19:53;;;;;;;11.60;5.53;;;4.60;99.90;;;;;;4125397;28;20102;-80
2023/12/14 05:21:54;;;;;;;15.52;5.75;;;4.60;99.90;;;;;;4124372;28;20066;-80
2023/12/14 05:23:55;;;;;;;14.27;5.20;;;4.60;99.90;;;;;;4121801;28;20093;-80
2023/12/14 05:25:56;;;;;;;11.30;4.55;;;4.60;99.90;;;;;;4120787;28;20048;-80
2023/12/14 05:27:58;;;;;;;14.73;5.45;;;5.30;99.90;;;;;;4120652;28;20051;-80
2023/12/14 05:29:58;;;;;;;12.80;5.10;;;5.60;99.90;;;;;;4120594;28;20432;-80
2023/12/14 05:31:59;;;;;;;11.63;4.80;;;4.60;99.90;;;;;;4120716;28;20046;-80
2023/12/14 05:34:00;;;;;;;13.18;5.10;;;4.60;99.90;;;;;;4120100;28;20538;-80
2023/12/14 05:36:00;;;;;;;14.75;5.18;;;4.70;99.90;;;;;;4120129;28;20038;-80
2023/12/14 05:38:01;;;;;;;13.65;5.63;;;4.70;99.90;;;;;;4120395;28;20086;-80
2023/12/14 05:40:02;;;;;;;13.77;4.45;;;4.70;99.90;;;;;;4120052;28;20047;-81
2023/12/14 05:42:03;;;;;;;13.57;5.55;;;4.70;99.90;;;;;;4120304;28;20051;-80
2023/12/14 05:44:04;;;;;;;12.48;5.25;;;4.70;99.90;;;;;;4120013;28;20467;-80
2023/12/14 05:46:05;;;;;;;13.38;5.25;;;4.70;99.90;;;;;;4120463;28;20431;-80
2023/12/14 05:48:06;;;;;;;17.60;5.25;;;4.70;99.90;;;;;;4119868;28;20047;-80
2023/12/14 05:50:09;;;;;;;17.73;4.82;;;4.60;99.90;;;;;;4123219;28;20043;-80
2023/12/14 05:52:11;;;;;;;13.18;4.80;;;4.60;99.90;;;;;;4121301;28;20480;-80
2023/12/14 05:54:11;;;;;;;10.75;4.18;;;4.60;99.90;;;;;;4121020;28;20173;-80
2023/12/14 05:56:13;;;;;;;15.15;5.50;;;4.60;99.90;;;;;;4122379;28;20114;-80
2023/12/14 05:58:14;;;;;;;13.07;5.20;;;4.70;99.90;;;;;;4123407;28;20056;-80
2023/12/14 06:00:15;;;;;;;14.82;5.00;;;4.70;99.90;;;;;;4123707;28;20086;-80
2023/12/14 06:02:16;;;;;;;10.63;5.32;;;4.60;99.90;;;;;;4126921;28;20100;-80
2023/12/14 06:04:17;;;;;;;13.30;5.53;;;4.60;99.90;;;;;;4130947;28;20455;-80
2023/12/14 06:06:18;;;;;;;12.13;5.10;;;4.60;99.90;;;;;;4130969;28;20042;-80
2023/12/14 06:08:20;;;;;;;14.40;5.47;;;4.60;99.90;;;;;;4130242;28;20046;-80
2023/12/14 06:10:22;;;;;;;17.35;5.88;;;4.60;99.90;;;;;;4130929;28;20403;-80
2023/12/14 06:12:22;;;;;;;16.20;5.82;;;4.60;99.90;;;;;;4131053;28;20046;-80
2023/12/14 06:14:23;;;;;;;15.75;5.20;;;4.60;99.90;;;;;;4129328;28;20059;-80
2023/12/14 06:16:24;;;;;;;14.80;5.15;;;4.60;99.90;;;;;;4124490;28;20117;-80
2023/12/14 06:18:26;;;;;;;15.77;6.38;;;4.60;99.90;;;;;;4121276;28;20093;-80
2023/12/14 06:20:26;;;;;;;15.45;5.45;;;4.60;99.90;;;;;;4122158;28;20122;-80
2023/12/14 06:22:27;;;;;;;13.65;5.88;;;4.70;99.90;;;;;;4121771;28;20054;-80
2023/12/14 06:24:27;;;;;;;11.02;5.00;;;4.70;99.90;;;;;;4121539;28;20066;-80
2023/12/14 06:26:29;;;;;;;17.17;5.13;;;4.70;99.90;;;;;;4121776;28;20066;-80
2023/12/14 06:28:30;;;;;;;11.30;5.30;;;4.60;99.90;;;;;;4121196;28;20039;-80
2023/12/14 06:30:31;;;;;;;14.93;5.45;;;4.70;99.90;;;;;;4120168;28;20051;-80
2023/12/14 06:32:32;;;;;;;15.95;5.13;;;4.70;99.90;;;;;;4121038;28;20377;-81
2023/12/14 06:34:32;;;;;;;11.07;4.22;;;4.60;99.90;;;;;;4120636;28;20057;-80
2023/12/14 06:36:34;;;;;;;16.05;5.10;;;5.00;99.90;;;;;;4120504;28;20039;-80
2023/12/14 06:38:34;;;;;;;18.23;6.43;;;4.60;99.90;;;;;;4120835;28;20047;-80
2023/12/14 06:40:37;;;;;;;14.35;5.68;;;4.70;99.90;;;;;;4120621;28;20043;-80
2023/12/14 06:42:38;;;;;;;16.25;6.63;;;4.70;99.90;;;;;;4121112;28;20050;-80
2023/12/14 06:44:39;;;;;;;17.15;5.22;;;4.70;99.90;;;;;;4121800;28;20086;-80
2023/12/14 06:46:40;;;;;;;11.52;5.22;;;4.60;99.90;;;;;;4120583;28;20035;-80
2023/12/14 06:48:41;;;;;;;12.75;5.55;;;4.70;99.90;;;;;;4135664;28;20398;-80
2023/12/14 06:50:42;;;;;;;17.23;5.82;;;4.70;99.90;;;;;;4103354;28;20461;-80
2023/12/14 06:52:43;;;;;;;16.02;5.20;;;4.60;99.90;;;;;;4120212;28;20198;-80
2023/12/14 06:54:44;;;;;;;13.80;5.30;;;4.70;99.90;;;;;;4120421;28;20058;-80
2023/12/14 06:56:44;;;;;;;14.80;6.15;;;4.90;99.90;;;;;;4120173;28;20118;-80
2023/12/14 06:58:45;;;;;;;21.70;5.93;;;4.70;99.90;;;;;;4119494;28;20055;-80
2023/12/14 07:00:47;;;;;;;10.80;4.78;;;4.80;99.90;;;;;;4120163;28;20085;-80
2023/12/14 07:02:48;;;;;;;14.77;5.97;;;4.70;99.90;;;;;;4119666;28;20153;-80
2023/12/14 07:04:49;;;;;;;13.20;5.22;;;4.70;99.90;;;;;;4119412;28;20488;-81
2023/12/14 07:06:51;;;;;;;18.27;5.70;;;4.70;99.90;;;;;;4119841;28;20122;-80
2023/12/14 07:08:52;;;;;;;14.05;5.40;;;4.70;99.90;;;;;;4119734;28;20050;-80
2023/12/14 07:10:52;;;;;;;13.73;5.53;;;5.60;99.90;;;;;;4119893;28;20043;-80
2023/12/14 07:12:54;;;;;;;13.43;5.60;;;4.70;99.90;;;;;;4119343;28;20070;-80
2023/12/14 07:14:55;;;;;;;15.60;6.07;;;4.70;99.90;;;;;;4118635;28;20055;-80
2023/12/14 07:16:56;;;;;;;13.73;5.80;;;5.30;99.90;;;;;;4119310;28;20055;-81
2023/12/14 07:18:57;;;;;;;18.33;6.18;;;4.70;99.90;;;;;;4118824;28;20066;-80
2023/12/14 07:20:59;;;;;;;14.65;5.35;;;4.60;99.90;;;;;;4134393;28;20081;-80
2023/12/14 07:22:59;;;;;;;15.50;5.40;;;4.60;99.90;;;;;;4119426;28;20454;-80
2023/12/14 07:25:00;;;;;;;14.00;6.13;;;4.70;99.90;;;;;;4119666;28;20043;-80
2023/12/14 07:27:02;;;;;;;15.98;5.35;;;4.70;99.90;;;;;;4118523;28;20056;-80
2023/12/14 07:29:03;;;;;;;16.75;5.50;;;4.70;99.90;;;;;;4118418;28;20081;-80
2023/12/14 07:31:03;;;;;;;12.80;5.15;;;4.70;99.90;;;;;;4118221;28;20047;-81
2023/12/14 07:33:05;;;;;;;16.42;5.53;;;5.30;99.90;;;;;;4119525;28;20050;-80
2023/12/14 07:35:06;;;;;;;13.10;4.90;;;4.80;99.90;;;;;;4118610;28;20074;-80
2023/12/14 07:37:07;;;;;;;15.43;6.13;;;4.60;99.90;;;;;;4117394;28;20074;-80
2023/12/14 07:39:09;;;;;;;13.40;6.10;;;4.60;99.90;;;;;;4118392;28;20488;-80
2023/12/14 07:41:10;;;;;;;16.20;5.63;;;5.30;99.90;;;;;;4117721;28;20096;-81
2023/12/14 07:43:11;;;;;;;15.90;5.97;;;4.60;99.90;;;;;;4119325;28;20074;-81
2023/12/14 07:45:12;;;;;;;13.05;6.15;;;4.70;99.90;;;;;;4119190;28;20039;-81
2023/12/14 07:47:13;;;;;;;14.70;6.63;;;5.10;99.90;;;;;;4119004;28;20038;-81
2023/12/14 07:49:15;;;;;;;18.08;7.32;;;4.70;99.90;;;;;;4117929;28;20047;-81
2023/12/14 07:51:15;;;;;;;15.15;5.53;;;4.80;99.90;;;;;;4119624;28;20480;-81
2023/12/14 07:53:16;;;;;;;22.95;6.38;;;4.60;99.90;;;;;;4119170;28;20084;-81
2023/12/14 07:55:18;;;;;;;16.17;6.50;;;5.20;99.90;;;;;;4125421;28;20181;-81
2023/12/14 07:57:19;;;;;;;14.50;5.60;;;5.50;99.90;;;;;;4121270;28;20043;-81
2023/12/14 07:59:20;;;;;;;18.52;6.50;;;4.60;99.90;;;;;;4118369;28;20081;-81
2023/12/14 08:01:21;;;;;;;18.38;6.22;;;4.60;99.90;;;;;;4118343;28;20543;-81
2023/12/14 08:03:22;;;;;;;17.60;6.15;;;4.60;99.90;;;;;;4117468;28;20051;-81
2023/12/14 08:05:22;;;;;;;13.82;5.65;;;4.70;99.90;;;;;;4119614;28;20046;-81
2023/12/14 08:07:28;;;;;;;18.58;6.65;;;5.40;99.90;;;;;;4118529;28;20039;-81
2023/12/14 08:09:29;;;;;;;18.95;5.93;;;4.60;99.90;;;;;;4118991;28;20043;-81
2023/12/14 08:11:30;;;;;;;15.52;6.50;;;4.60;99.90;;;;;;4118632;28;20070;-81
2023/12/14 08:13:31;;;;;;;20.52;6.25;;;4.70;99.90;;;;;;4118198;28;20038;-81
2023/12/14 08:15:32;;;;;;;17.52;5.95;;;5.80;99.90;;;;;;4118725;28;20448;-81
2023/12/14 08:17:32;;;;;;;14.52;6.22;;;4.70;99.90;;;;;;4117984;28;20042;-81
2023/12/14 08:19:33;;;;;;;15.32;6.45;;;4.80;99.90;;;;;;4118729;28;20054;-81
2023/12/14 08:21:35;;;;;;;17.00;6.38;;;4.70;99.90;;;;;;4118248;28;20049;-82
2023/12/14 08:23:36;;;;;;;17.05;6.10;;;4.70;99.90;;;;;;4118532;28;20049;-81
2023/12/14 08:25:38;;;;;;;18.02;6.55;;;4.70;99.90;;;;;;4117547;28;20074;-81
2023/12/14 08:27:38;;;;;;;20.48;6.70;;;4.70;99.90;;;;;;4118112;28;20047;-81
2023/12/14 08:29:39;;;;;;;17.48;6.65;;;4.70;99.90;;;;;;4117008;28;20790;-82
2023/12/14 08:31:41;;;;;;;15.80;6.50;;;4.70;99.90;;;;;;4117707;28;20043;-81
2023/12/14 08:33:42;;;;;;;15.52;7.03;;;4.80;99.90;;;;;;4117532;28;20143;-82
2023/12/14 08:35:43;;;;;;;17.63;6.15;;;5.60;99.90;;;;;;4116760;28;20038;-82
2023/12/14 08:37:45;;;;;;;16.40;6.35;;;4.70;99.90;;;;;;4116713;28;20093;-81
2023/12/14 08:39:45;;;;;;;16.08;6.65;;;5.00;99.90;;;;;;4112876;28;20074;-81
2023/12/14 08:41:48;;;;;;;22.17;7.32;;;4.70;99.90;;;;;;4117819;28;20476;-81
2023/12/14 08:43:48;;;;;;;19.77;6.50;;;4.70;99.90;;;;;;4117152;28;20416;-81
2023/12/14 08:45:50;;;;;;;26.92;7.00;;;4.70;99.90;;;;;;4117225;28;20046;-81
2023/12/14 08:47:53;;;;;;;17.05;7.50;;;5.20;99.90;;;;;;4117311;28;20075;-81
2023/12/14 08:49:53;;;;;;;19.80;7.03;;;5.60;99.90;;;;;;4117384;28;20072;-81
2023/12/14 08:51:55;;;;;;;17.98;6.53;;;4.80;99.90;;;;;;4117619;28;20074;-81
2023/12/14 08:53:55;;;;;;;24.08;7.50;;;4.80;99.90;;;;;;4117302;28;20448;-81
2023/12/14 08:55:57;;;;;;;14.20;6.68;;;5.60;99.90;;;;;;4117157;28;20054;-81
2023/12/14 08:57:58;;;;;;;16.05;6.28;;;5.10;99.90;;;;;;4117517;28;20122;-81
2023/12/14 08:59:59;;;;;;;16.90;6.63;;;4.80;99.90;;;;;;4116321;28;20039;-81
2023/12/14 09:01:59;;;;;;;20.08;7.93;;;4.90;99.90;;;;;;4117719;28;20043;-81
2023/12/14 09:04:01;;;;;;;21.00;6.85;;;4.90;99.90;;;;;;4117205;28;20051;-81
2023/12/14 09:06:05;;;;;;;21.73;7.22;;;5.50;99.90;;;;;;4117136;28;20049;-82
2023/12/14 09:08:06;;;;;;;16.77;7.20;;;4.90;99.90;;;;;;4117576;28;20132;-82
2023/12/14 09:10:08;;;;;;;23.27;7.38;;;5.30;99.90;;;;;;4116144;28;20051;-82
2023/12/14 09:12:09;;;;;;;19.70;7.22;;;5.00;99.90;;;;;;4117973;28;20069;-82
2023/12/14 09:14:10;;;;;;;17.13;7.05;;;5.00;99.90;;;;;;4118349;28;20126;-81
2023/12/14 09:16:12;;;;;;;17.10;7.13;;;5.00;99.90;;;;;;4117781;28;20042;-81
2023/12/14 09:18:13;;;;;;;20.52;5.95;;;5.00;99.90;;;;;;4117530;28;20073;-81
2023/12/14 09:20:14;;;;;;;14.10;5.93;;;5.00;99.90;;;;;;4117026;28;20375;-81
2023/12/14 09:22:15;;;;;;;16.77;6.97;;;5.40;99.90;;;;;;4117249;28;20074;-82
2023/12/14 09:24:15;;;;;;;14.98;6.20;;;5.00;99.90;;;;;;4116561;28;20047;-81
2023/12/14 09:26:17;;;;;;;22.13;6.30;;;5.00;99.90;;;;;;4116607;28;20124;-81
2023/12/14 09:28:18;;;;;;;20.58;6.57;;;5.30;99.90;;;;;;4117920;28;20082;-81
2023/12/14 09:30:20;;;;;;;14.98;6.05;;;5.00;99.90;;;;;;4117168;28;20547;-81
2023/12/14 09:32:20;;;;;;;18.75;7.18;;;5.10;99.90;;;;;;4117134;28;20137;-82
2023/12/14 09:34:21;;;;;;;20.92;7.25;;;5.10;99.90;;;;;;4131532;28;20133;-81
2023/12/14 09:36:24;;;;;;;12.85;5.95;;;5.00;99.90;;;;;;4133554;28;20049;-82
2023/12/14 09:38:25;;;;;;;19.98;6.55;;;6.10;99.90;;;;;;4128631;28;20451;-82
2023/12/14 09:40:27;;;;;;;18.75;7.53;;;5.80;99.90;;;;;;4136134;28;20054;-81
2023/12/14 09:42:27;;;;;;;14.82;6.22;;;5.40;99.90;;;;;;4136293;28;20049;-81
2023/12/14 09:44:29;;;;;;;17.00;5.75;;;5.40;99.90;;;;;;4135621;28;20078;-81
2023/12/14 09:46:30;;;;;;;23.38;7.35;;;5.10;99.90;;;;;;4135334;28;20563;-81
2023/12/14 09:48:33;;;;;;;16.15;5.53;;;5.70;99.90;;;;;;4135175;28;20046;-81
2023/12/14 09:50:34;;;;;;;18.25;7.03;;;5.60;99.90;;;;;;4133966;28;20428;-81
2023/12/14 09:52:35;;;;;;;12.27;6.18;;;5.10;99.90;;;;;;4135771;28;20080;-82
2023/12/14 09:54:37;;;;;;;18.20;7.20;;;5.10;99.90;;;;;;4135411;28;20046;-81
2023/12/14 09:56:46;;;;;;;21.55;7.50;;;5.10;99.90;;;;;;4133907;28;20090;-81
2023/12/14 09:58:47;;;;;;;18.40;6.50;;;5.10;99.90;;;;;;4135129;28;20423;-82
2023/12/14 10:00:48;;;;;;;14.85;6.28;;;5.10;99.90;;;;;;4130537;28;20047;-82
2023/12/14 10:02:50;;;;;;;18.92;6.13;;;5.10;99.90;;;;;;4120165;28;20039;-82
2023/12/14 10:04:51;;;;;;;14.25;6.32;;;6.30;99.90;;;;;;4120269;28;20070;-81
2023/12/14 10:06:51;;;;;;;18.88;6.38;;;5.70;99.90;;;;;;4124976;28;20065;-82
2023/12/14 10:08:58;;;;;;;17.48;6.53;;;5.40;99.90;;;;;;4122361;28;20055;-82
2023/12/14 10:11:01;;;;;;;14.85;6.13;;;5.60;99.90;;;;;;4118955;28;20492;-81
2023/12/14 10:13:03;;;;;;;16.02;6.03;;;5.70;99.90;;;;;;4118610;28;20074;-82
2023/12/14 10:15:06;;;;;;;19.13;6.53;;;5.20;99.90;;;;;;4119087;28;20083;-82
2023/12/14 10:17:24;;;;;;;18.02;6.07;;;5.20;99.90;;;;;;4123195;28;20053;-82
2023/12/14 10:19:26;;;;;;;15.90;6.87;;;5.20;99.90;;;;;;4119218;28;20129;-82
2023/12/14 10:21:28;;;;;;;21.40;7.60;;;5.20;99.90;;;;;;4117881;28;20129;-82
2023/12/14 10:23:30;;;;;;;19.13;6.43;;;5.20;99.90;;;;;;4122146;28;20050;-82
2023/12/14 10:25:31;;;;;;;16.85;6.75;;;5.20;99.90;;;;;;4117898;28;20078;-82
2023/12/14 10:27:32;;;;;;;17.77;6.85;;;5.20;99.90;;;;;;4118568;28;20073;-82
2023/12/14 10:29:36;;;;;;;17.40;5.70;;;6.20;99.90;;;;;;4118398;28;20078;-82
2023/12/14 10:31:38;;;;;;;15.43;7.00;;;5.20;99.90;;;;;;4118534;28;20420;-82